createdAt,value
2023-05-20T00:01:45.446Z,4.05
2023-05-20T00:04:12.817Z,3.60
2023-05-20T00:06:40.139Z,4.32
2023-05-20T00:09:08.767Z,3.25
2023-05-20T00:11:36.030Z,3.97
2023-05-20T00:14:03.330Z,3.30
2023-05-20T00:16:30.686Z,3.53
2023-05-20T00:18:58.087Z,3.28
2023-05-20T00:21:25.356Z,2.75
2023-05-20T00:23:52.696Z,3.55
2023-05-20T00:26:21.297Z,4.30
2023-05-20T00:28:48.520Z,3.42
2023-05-20T00:31:15.918Z,3.05
2023-05-20T00:33:43.199Z,3.00
2023-05-20T00:36:10.515Z,2.88
2023-05-20T00:38:37.844Z,3.60
2023-05-20T00:41:05.186Z,3.28
2023-05-20T00:43:33.803Z,3.78
2023-05-20T00:46:01.698Z,2.85
2023-05-20T00:48:36.953Z,3.42
2023-05-20T00:51:04.303Z,3.30
2023-05-20T00:53:34.405Z,5.13
2023-05-20T00:56:01.791Z,3.55
2023-05-20T00:58:29.049Z,3.67
2023-05-20T01:00:57.887Z,4.05
2023-05-20T01:03:25.756Z,3.30
2023-05-20T01:05:53.236Z,3.75
2023-05-20T01:08:20.517Z,3.70
2023-05-20T01:10:51.464Z,3.83
2023-05-20T01:13:21.922Z,3.15
2023-05-20T01:15:50.616Z,4.60
2023-05-20T01:18:20.256Z,3.08
2023-05-20T01:20:49.950Z,3.72
2023-05-20T01:23:18.584Z,4.03
2023-05-20T01:25:45.869Z,3.60
2023-05-20T01:28:13.252Z,3.90
2023-05-20T01:30:56.055Z,3.30
2023-05-20T01:33:25.340Z,3.55
2023-05-20T01:35:53.082Z,3.22
2023-05-20T01:38:23.601Z,3.92
2023-05-20T01:40:52.157Z,5.32
2023-05-20T01:43:20.585Z,3.50
2023-05-20T01:45:47.812Z,3.75
2023-05-20T01:48:15.173Z,4.10
2023-05-20T01:50:42.640Z,3.55
2023-05-20T01:53:09.953Z,3.72
2023-05-20T01:55:38.634Z,3.40
2023-05-20T01:58:05.928Z,4.03
2023-05-20T02:00:33.739Z,3.45
2023-05-20T02:03:01.100Z,3.78
2023-05-20T02:05:28.371Z,3.42
2023-05-20T02:07:55.684Z,3.53
2023-05-20T02:10:22.971Z,4.25
2023-05-20T02:12:51.628Z,3.60
2023-05-20T02:15:18.904Z,4.30
2023-05-20T02:17:46.672Z,3.00
2023-05-20T02:20:14.087Z,3.22
2023-05-20T02:22:41.414Z,3.35
2023-05-20T02:25:09.746Z,3.47
2023-05-20T02:27:37.333Z,3.67
2023-05-20T02:30:07.587Z,3.22
2023-05-20T02:32:34.978Z,3.03
2023-05-20T02:35:02.474Z,3.30
2023-05-20T02:37:29.752Z,4.15
2023-05-20T02:39:57.014Z,4.65
2023-05-20T02:42:25.354Z,5.03
2023-05-20T02:44:52.600Z,3.65
2023-05-20T02:47:21.505Z,3.70
2023-05-20T02:49:48.725Z,5.15
2023-05-20T02:52:16.074Z,3.63
2023-05-20T02:54:43.367Z,3.10
2023-05-20T02:57:10.632Z,3.72
2023-05-20T02:59:38.167Z,3.88
2023-05-20T03:02:05.536Z,4.13
2023-05-20T03:04:34.152Z,4.13
2023-05-20T03:07:01.471Z,3.63
2023-05-20T03:09:28.783Z,3.40
2023-05-20T03:11:56.043Z,3.78
2023-05-20T03:14:23.316Z,3.55
2023-05-20T03:16:52.187Z,3.80
2023-05-20T03:19:19.684Z,3.22
2023-05-20T03:21:48.380Z,4.45
2023-05-20T03:24:15.621Z,3.88
2023-05-20T03:26:42.872Z,3.55
2023-05-20T03:29:10.440Z,4.78
2023-05-20T03:31:37.792Z,3.80
2023-05-20T03:34:05.096Z,3.35
2023-05-20T03:36:32.586Z,3.88
2023-05-20T03:39:01.256Z,3.58
2023-05-20T03:41:28.516Z,3.80
2023-05-20T03:43:55.839Z,4.10
2023-05-20T03:46:23.159Z,3.88
2023-05-20T03:48:50.380Z,4.03
2023-05-20T03:51:17.655Z,6.30
2023-05-20T03:53:44.940Z,4.55
2023-05-20T03:56:13.604Z,5.20
2023-05-20T03:58:40.823Z,4.20
2023-05-20T04:01:09.334Z,4.05
2023-05-20T04:03:36.913Z,4.10
2023-05-20T04:06:04.263Z,3.95
2023-05-20T04:08:31.632Z,4.85
2023-05-20T04:10:59.153Z,6.63
2023-05-20T04:13:28.057Z,4.20
2023-05-20T04:15:55.315Z,4.68
2023-05-20T04:18:22.549Z,3.92
2023-05-20T04:20:49.823Z,4.60
2023-05-20T04:23:17.092Z,3.72
2023-05-20T04:25:44.394Z,4.60
2023-05-20T04:28:11.843Z,4.00
2023-05-20T04:30:40.549Z,3.65
2023-05-20T04:33:07.877Z,3.65
2023-05-20T04:35:35.529Z,4.30
2023-05-20T04:38:03.039Z,4.13
2023-05-20T04:40:30.276Z,4.07
2023-05-20T04:42:59.976Z,5.45
2023-05-20T04:45:27.449Z,3.85
2023-05-20T04:47:56.220Z,5.57
2023-05-20T04:50:23.638Z,4.40
2023-05-20T04:52:50.896Z,4.13
2023-05-20T04:55:19.205Z,6.57
2023-05-20T04:57:46.431Z,4.57
2023-05-20T05:00:14.378Z,4.50
2023-05-20T05:02:41.741Z,5.07
2023-05-20T05:05:10.465Z,6.65
2023-05-20T05:07:37.777Z,4.50
2023-05-20T05:10:05.752Z,5.03
2023-05-20T05:12:33.050Z,4.28
2023-05-20T05:15:00.576Z,4.50
2023-05-20T05:17:27.865Z,6.45
2023-05-20T05:19:55.155Z,4.47
2023-05-20T05:22:23.785Z,4.43
2023-05-20T05:24:51.042Z,4.47
2023-05-20T05:27:18.399Z,5.60
2023-05-20T05:29:45.981Z,5.18
2023-05-20T05:32:13.291Z,6.15
2023-05-20T05:34:40.863Z,7.10
2023-05-20T05:37:08.491Z,5.57
2023-05-20T05:39:37.168Z,4.38
2023-05-20T05:42:04.886Z,4.75
2023-05-20T05:44:32.255Z,5.22
2023-05-20T05:47:00.417Z,5.45
2023-05-20T05:49:27.765Z,4.57
2023-05-20T05:51:55.105Z,4.40
2023-05-20T05:54:22.347Z,6.53
2023-05-20T05:56:51.238Z,4.25
2023-05-20T05:59:20.018Z,4.53
2023-05-20T06:01:47.326Z,4.65
2023-05-20T06:04:14.715Z,5.22
2023-05-20T06:06:42.320Z,5.28
2023-05-20T06:09:09.611Z,5.38
2023-05-20T06:11:36.945Z,4.70
2023-05-20T06:14:05.857Z,9.05
2023-05-20T06:16:33.223Z,5.43
2023-05-20T06:19:03.491Z,7.63
2023-05-20T06:21:31.597Z,5.55
2023-05-20T06:24:00.231Z,5.50
2023-05-20T06:26:27.796Z,5.68
2023-05-20T06:28:55.026Z,4.82
2023-05-20T06:31:23.665Z,5.78
2023-05-20T06:33:51.065Z,5.45
2023-05-20T06:36:18.627Z,7.43
2023-05-20T06:38:46.170Z,9.50
2023-05-20T06:41:14.486Z,5.88
2023-05-20T06:43:41.903Z,5.80
2023-05-20T06:46:09.227Z,6.20
2023-05-20T06:48:37.915Z,5.45
2023-05-20T06:51:08.074Z,6.55
2023-05-20T06:53:35.576Z,5.78
2023-05-20T06:56:02.968Z,5.55
2023-05-20T06:58:33.280Z,6.65
2023-05-20T07:01:00.527Z,7.07
2023-05-20T07:03:27.865Z,4.80
2023-05-20T07:05:56.837Z,5.38
2023-05-20T07:08:24.354Z,4.47
2023-05-20T07:10:51.913Z,5.55
2023-05-20T07:13:20.179Z,4.90
2023-05-20T07:15:48.506Z,5.50
2023-05-20T07:18:16.402Z,5.03
2023-05-20T07:20:44.130Z,5.55
2023-05-20T07:23:15.978Z,5.05
2023-05-20T07:25:43.308Z,5.18
2023-05-20T07:28:10.618Z,5.97
2023-05-20T07:30:38.096Z,5.20
2023-05-20T07:33:05.646Z,5.72
2023-05-20T07:35:33.096Z,5.15
2023-05-20T07:38:00.822Z,4.82
2023-05-20T07:40:29.496Z,5.50
2023-05-20T07:42:56.754Z,5.18
2023-05-20T07:45:23.975Z,4.85
2023-05-20T07:47:51.244Z,5.35
2023-05-20T07:50:18.588Z,4.85
2023-05-20T07:52:55.934Z,6.15
2023-05-20T07:55:24.476Z,5.43
2023-05-20T07:57:53.252Z,5.25
2023-05-20T08:00:21.066Z,5.78
2023-05-20T08:02:48.500Z,5.45
2023-05-20T08:05:15.855Z,6.55
2023-05-20T08:07:43.192Z,22.52
2023-05-20T08:10:11.005Z,5.72
2023-05-20T08:12:38.303Z,5.13
2023-05-20T08:15:08.453Z,5.00
2023-05-20T08:17:35.796Z,4.60
2023-05-20T08:20:03.280Z,5.40
2023-05-20T08:22:30.775Z,4.95
2023-05-20T08:24:58.086Z,6.30
2023-05-20T08:27:25.622Z,5.70
2023-05-20T08:29:52.896Z,5.22
2023-05-20T08:32:21.599Z,5.30
2023-05-20T08:34:48.881Z,4.45
2023-05-20T08:37:16.161Z,5.53
2023-05-20T08:39:43.595Z,6.32
2023-05-20T08:42:10.817Z,5.95
2023-05-20T08:44:38.216Z,5.25
2023-05-20T08:47:07.598Z,5.40
2023-05-20T08:49:36.288Z,5.43
2023-05-20T08:52:04.963Z,5.75
2023-05-20T08:54:44.380Z,6.00
2023-05-20T08:57:11.784Z,6.13
2023-05-20T08:59:39.309Z,7.15
2023-05-20T09:02:08.407Z,6.60
2023-05-20T09:04:37.225Z,6.85
2023-05-20T09:07:04.666Z,6.70
2023-05-20T09:09:33.512Z,6.75
2023-05-20T09:12:00.859Z,7.13
2023-05-20T09:14:28.247Z,8.13
2023-05-20T09:16:55.611Z,8.20
2023-05-20T09:19:24.539Z,7.20
2023-05-20T09:21:54.701Z,7.07
2023-05-20T09:24:25.870Z,7.68
2023-05-20T09:26:53.174Z,7.32
2023-05-20T09:29:20.420Z,7.72
2023-05-20T09:31:48.174Z,7.47
2023-05-20T09:34:16.661Z,6.82
2023-05-20T09:36:44.690Z,6.75
2023-05-20T09:39:15.971Z,8.52
2023-05-20T09:41:52.240Z,7.07
2023-05-20T09:44:19.986Z,7.32
2023-05-20T09:49:15.329Z,8.05
2023-05-20T09:51:44.137Z,7.70
2023-05-20T09:54:14.022Z,6.75
2023-05-20T09:56:41.590Z,6.82
2023-05-20T09:59:11.605Z,7.20
2023-05-20T10:01:38.945Z,7.78
2023-05-20T10:04:08.438Z,6.63
2023-05-20T10:06:49.972Z,7.38
2023-05-20T10:09:47.740Z,6.50
2023-05-20T10:12:25.773Z,7.13
2023-05-20T10:15:02.818Z,6.53
2023-05-20T10:17:39.835Z,6.22
2023-05-20T10:20:08.241Z,6.88
2023-05-20T10:22:35.546Z,6.82
2023-05-20T10:25:07.891Z,9.95
2023-05-20T10:27:45.150Z,7.43
2023-05-20T10:30:16.317Z,7.85
2023-05-20T10:32:52.073Z,8.23
2023-05-20T10:35:22.743Z,7.05
2023-05-20T10:37:49.988Z,7.15
2023-05-20T10:40:20.904Z,7.10
2023-05-20T10:42:48.661Z,6.60
2023-05-20T10:45:26.229Z,7.50
2023-05-20T10:47:57.578Z,7.25
2023-05-20T10:50:29.332Z,6.20
2023-05-20T10:53:03.805Z,8.38
2023-05-20T10:55:37.444Z,7.00
2023-05-20T10:58:05.611Z,7.05
2023-05-20T11:00:35.578Z,8.13
2023-05-20T11:03:04.504Z,6.70
2023-05-20T11:05:32.213Z,7.57
2023-05-20T11:10:33.897Z,7.03
2023-05-20T11:13:04.410Z,6.47
2023-05-20T11:15:35.278Z,6.03
2023-05-20T11:18:04.219Z,7.18
2023-05-20T11:20:31.906Z,6.82
2023-05-20T11:25:26.342Z,6.38
2023-05-20T11:27:54.040Z,6.22
2023-05-20T11:33:00.428Z,6.30
2023-05-20T11:35:28.958Z,6.93
2023-05-20T11:37:57.223Z,6.88
2023-05-20T11:40:27.168Z,7.50
2023-05-20T11:42:59.480Z,7.20
2023-05-20T11:45:38.886Z,7.13
2023-05-20T11:48:06.824Z,7.68
2023-05-20T11:50:35.662Z,7.70
2023-05-20T11:53:03.626Z,6.90
2023-05-20T11:55:31.793Z,6.95
2023-05-20T11:58:00.211Z,6.93
2023-05-20T12:00:31.315Z,7.00
2023-05-20T12:03:04.226Z,6.93
2023-05-20T12:05:31.811Z,10.23
2023-05-20T12:07:59.123Z,8.07
2023-05-20T12:10:26.409Z,7.70
2023-05-20T12:12:53.762Z,7.10
2023-05-20T12:15:21.018Z,7.53
2023-05-20T12:17:50.720Z,6.57
2023-05-20T12:20:19.852Z,7.45
2023-05-20T12:22:47.842Z,6.47
2023-05-20T12:25:16.480Z,7.88
2023-05-20T12:27:43.849Z,7.28
2023-05-20T12:30:11.582Z,7.25
2023-05-20T12:32:38.996Z,6.38
2023-05-20T12:35:09.272Z,6.68
2023-05-20T12:37:37.273Z,6.25
2023-05-20T12:40:05.506Z,6.32
2023-05-20T12:42:35.306Z,6.28
2023-05-20T12:45:04.966Z,6.65
2023-05-20T12:47:33.890Z,7.45
2023-05-20T12:50:01.593Z,6.80
2023-05-20T12:52:30.295Z,7.75
2023-05-20T12:54:57.604Z,7.00
2023-05-20T12:57:25.174Z,6.65
2023-05-20T13:02:19.492Z,5.93
2023-05-20T13:04:46.865Z,6.40
2023-05-20T13:07:14.175Z,6.35
2023-05-20T13:09:44.692Z,6.22
2023-05-20T13:12:11.971Z,6.22
2023-05-20T13:14:39.214Z,6.47
2023-05-20T13:17:06.923Z,6.72
2023-05-20T13:19:34.441Z,6.53
2023-05-20T13:24:28.786Z,6.65
2023-05-20T13:26:57.462Z,6.90
2023-05-20T13:29:24.960Z,7.18
2023-05-20T13:31:52.261Z,6.53
2023-05-20T13:34:19.837Z,6.90
2023-05-20T13:39:16.305Z,6.55
2023-05-20T13:41:43.954Z,6.57
2023-05-20T13:44:13.658Z,6.38
2023-05-20T13:46:41.009Z,6.68
2023-05-20T13:49:08.361Z,7.35
2023-05-20T13:51:35.725Z,6.50
2023-05-20T13:54:03.010Z,7.63
2023-05-20T13:56:31.603Z,7.25
2023-05-20T13:58:59.168Z,6.30
2023-05-20T14:03:54.985Z,7.07
2023-05-20T14:06:22.313Z,6.88
2023-05-20T14:08:49.577Z,6.82
2023-05-20T14:11:16.906Z,6.65
2023-05-20T14:13:45.392Z,6.32
2023-05-20T14:16:12.992Z,6.47
2023-05-20T14:21:08.615Z,5.97
2023-05-20T14:23:35.940Z,6.05
2023-05-20T14:26:03.339Z,6.57
2023-05-20T14:28:30.609Z,5.97
2023-05-20T14:30:57.912Z,5.93
2023-05-20T14:33:25.212Z,6.90
2023-05-20T14:35:53.926Z,6.43
2023-05-20T14:38:22.284Z,6.95
2023-05-20T14:40:49.636Z,6.75
2023-05-20T14:43:16.863Z,5.90
2023-05-20T14:45:44.311Z,6.68
2023-05-20T14:48:11.821Z,7.38
2023-05-20T14:53:08.706Z,6.53
2023-05-20T14:55:35.979Z,6.47
2023-05-20T14:58:04.537Z,7.18
2023-05-20T15:00:31.793Z,6.78
2023-05-20T15:05:26.621Z,5.90
2023-05-20T15:07:54.245Z,6.38
2023-05-20T15:10:23.050Z,6.20
2023-05-20T15:12:50.360Z,6.60
2023-05-20T15:15:17.812Z,6.93
2023-05-20T15:17:45.095Z,8.30
2023-05-20T15:20:12.974Z,6.50
2023-05-20T15:22:40.331Z,6.43
2023-05-20T15:25:08.204Z,6.13
2023-05-20T15:27:36.948Z,5.43
2023-05-20T15:30:05.126Z,6.20
2023-05-20T15:32:32.583Z,6.40
2023-05-20T15:35:02.437Z,5.80
2023-05-20T15:37:30.390Z,8.20
2023-05-20T15:39:57.809Z,6.82
2023-05-20T15:42:25.108Z,5.70
2023-05-20T15:44:53.876Z,6.57
2023-05-20T15:47:21.257Z,6.72
2023-05-20T15:49:48.878Z,5.68
2023-05-20T15:54:43.182Z,6.35
2023-05-20T15:57:10.424Z,6.07
2023-05-20T15:59:37.697Z,7.18
2023-05-20T16:02:06.823Z,6.57
2023-05-20T16:04:34.251Z,7.00
2023-05-20T16:07:01.572Z,6.80
2023-05-20T16:09:28.805Z,6.35
2023-05-20T16:11:56.092Z,5.85
2023-05-20T16:14:24.484Z,6.80
2023-05-20T16:16:51.750Z,6.65
2023-05-20T16:19:20.433Z,7.15
2023-05-20T16:21:47.850Z,5.82
2023-05-20T16:24:15.844Z,6.50
2023-05-20T16:26:43.290Z,6.57
2023-05-20T16:29:10.569Z,6.35
2023-05-20T16:31:40.566Z,6.40
2023-05-20T16:34:07.961Z,7.43
2023-05-20T16:36:36.667Z,6.50
2023-05-20T16:41:23.847Z,6.50
2023-05-20T16:43:51.422Z,6.47
2023-05-20T16:48:45.840Z,7.78
2023-05-20T16:51:13.181Z,7.68
2023-05-20T16:53:41.903Z,9.45
2023-05-20T16:56:09.185Z,10.40
2023-05-20T16:58:36.385Z,12.55
2023-05-20T17:01:03.787Z,10.43
2023-05-20T17:03:31.658Z,8.90
2023-05-20T17:05:58.989Z,8.38
2023-05-20T17:08:26.199Z,8.82
2023-05-20T17:10:54.782Z,29.30
2023-05-20T17:13:22.142Z,7.10
2023-05-20T17:15:49.411Z,7.57
2023-05-20T17:18:16.728Z,6.93
2023-05-20T17:20:44.080Z,7.53
2023-05-20T17:23:11.348Z,7.60
2023-05-20T17:25:38.652Z,7.72
2023-05-20T17:28:07.587Z,7.45
2023-05-20T17:30:35.163Z,8.13
2023-05-20T17:35:29.642Z,8.68
2023-05-20T17:37:56.891Z,8.48
2023-05-20T17:40:24.202Z,7.90
2023-05-20T17:42:51.500Z,7.30
2023-05-20T17:45:20.151Z,7.47
2023-05-20T17:47:47.480Z,7.40
2023-05-20T17:50:14.842Z,7.63
2023-05-20T17:52:42.134Z,6.78
2023-05-20T17:55:09.755Z,7.63
2023-05-20T18:00:05.044Z,7.03
2023-05-20T18:02:33.844Z,6.63
2023-05-20T18:05:01.255Z,8.05
2023-05-20T18:07:28.525Z,34.80
2023-05-20T18:09:55.790Z,7.55
2023-05-20T18:12:23.096Z,8.75
2023-05-20T18:14:50.380Z,8.18
2023-05-20T18:17:17.775Z,8.40
2023-05-20T18:19:46.517Z,7.28
2023-05-20T18:22:13.872Z,7.75
2023-05-20T18:24:41.127Z,8.10
2023-05-20T18:27:08.385Z,6.43
2023-05-20T18:29:35.649Z,8.45
2023-05-20T18:32:02.960Z,8.05
2023-05-20T18:34:30.342Z,8.20
2023-05-20T18:36:59.096Z,8.30
2023-05-20T18:39:26.422Z,7.95
2023-05-20T18:41:53.769Z,9.77
2023-05-20T18:44:21.278Z,9.43
2023-05-20T18:46:48.622Z,7.97
2023-05-20T18:49:16.146Z,8.57
2023-05-20T18:51:43.417Z,7.28
2023-05-20T18:54:12.146Z,8.30
2023-05-20T18:56:39.382Z,7.93
2023-05-20T18:59:06.582Z,8.65
2023-05-20T19:01:34.186Z,7.82
2023-05-20T19:06:28.548Z,7.50
2023-05-20T19:08:56.028Z,7.30
2023-05-20T19:11:24.987Z,7.63
2023-05-20T19:13:52.289Z,9.40
2023-05-20T19:16:19.853Z,8.27
2023-05-20T19:18:47.588Z,8.40
2023-05-20T19:21:14.851Z,10.38
2023-05-20T19:23:42.657Z,8.98
2023-05-20T19:28:38.307Z,10.55
2023-05-20T19:31:05.622Z,9.55
2023-05-20T19:33:32.938Z,9.07
2023-05-20T19:36:00.339Z,8.20
2023-05-20T19:38:27.627Z,8.13
2023-05-20T19:40:54.925Z,9.07
2023-05-20T19:43:22.191Z,8.75
2023-05-20T19:45:50.883Z,9.32
2023-05-20T19:48:19.944Z,11.77
2023-05-20T19:50:48.946Z,10.63
2023-05-20T19:53:16.419Z,9.57
2023-05-20T19:55:45.123Z,10.27
2023-05-20T19:58:12.403Z,9.38
2023-05-20T20:00:39.786Z,9.80
2023-05-20T20:03:08.586Z,9.77
2023-05-20T20:05:37.145Z,11.27
2023-05-20T20:08:05.283Z,11.02
2023-05-20T20:10:33.905Z,11.43
2023-05-20T20:13:01.205Z,11.13
2023-05-20T20:15:28.514Z,11.90
2023-05-20T20:17:55.910Z,10.35
2023-05-20T20:20:24.927Z,8.85
2023-05-20T20:22:52.275Z,9.50
2023-05-20T20:25:20.079Z,9.05
2023-05-20T20:30:14.488Z,11.52
2023-05-20T20:32:43.597Z,12.27
2023-05-20T20:35:10.927Z,13.93
2023-05-20T20:37:39.551Z,12.38
2023-05-20T20:40:09.008Z,12.70
2023-05-20T20:42:36.227Z,10.85
2023-05-20T20:45:03.948Z,11.32
2023-05-20T20:49:58.266Z,9.40
2023-05-20T20:52:30.229Z,9.65
2023-05-20T20:54:58.878Z,10.18
2023-05-20T20:57:26.401Z,9.45
2023-05-20T20:59:53.954Z,9.98
2023-05-20T21:02:21.315Z,9.13
2023-05-20T21:04:48.597Z,10.38
2023-05-20T21:07:15.840Z,10.18
2023-05-20T21:09:43.149Z,10.35
2023-05-20T21:12:11.893Z,10.13
2023-05-20T21:14:39.178Z,9.55
2023-05-20T21:17:07.003Z,9.73
2023-05-20T21:19:34.430Z,9.52
2023-05-20T21:22:01.949Z,9.63
2023-05-20T21:24:29.253Z,9.85
2023-05-20T21:26:56.783Z,8.85
2023-05-20T21:29:25.420Z,10.30
2023-05-20T21:31:52.700Z,10.05
2023-05-20T21:34:19.899Z,11.70
2023-05-20T21:36:47.150Z,8.60
2023-05-20T21:39:14.351Z,9.27
2023-05-20T21:41:41.536Z,10.07
2023-05-20T21:44:08.740Z,9.95
2023-05-20T21:46:37.648Z,9.65
2023-05-20T21:49:05.029Z,10.20
2023-05-20T21:51:32.299Z,9.57
2023-05-20T21:53:59.594Z,9.93
2023-05-20T21:56:26.910Z,10.18
2023-05-20T21:58:54.164Z,12.32
2023-05-20T22:01:21.579Z,10.43
2023-05-20T22:03:51.473Z,10.13
2023-05-20T22:06:19.884Z,11.40
2023-05-20T22:08:47.171Z,11.63
2023-05-20T22:11:14.627Z,11.55
2023-05-20T22:13:41.848Z,12.80
2023-05-20T22:16:09.380Z,11.60
2023-05-20T22:18:36.661Z,11.05
2023-05-20T22:21:05.828Z,11.75
2023-05-20T22:23:33.363Z,11.30
2023-05-20T22:26:00.712Z,12.07
2023-05-20T22:28:27.943Z,12.15
2023-05-20T22:30:55.246Z,12.00
2023-05-20T22:33:22.531Z,12.90
2023-05-20T22:35:50.200Z,13.00
2023-05-20T22:38:18.995Z,12.07
2023-05-20T22:40:46.295Z,12.13
2023-05-20T22:43:13.556Z,12.20
2023-05-20T22:45:40.987Z,11.73
2023-05-20T22:48:08.392Z,12.93
2023-05-20T22:50:35.748Z,13.55
2023-05-20T22:53:03.046Z,13.05
2023-05-20T22:55:34.792Z,12.63
2023-05-20T22:58:03.582Z,13.30
2023-05-20T23:00:30.896Z,13.13
2023-05-20T23:02:58.282Z,13.13
2023-05-20T23:05:25.681Z,15.02
2023-05-20T23:07:53.107Z,13.18
2023-05-20T23:10:20.801Z,15.48
2023-05-20T23:12:49.544Z,14.45
2023-05-20T23:15:17.473Z,13.50
2023-05-20T23:17:45.364Z,17.73
2023-05-20T23:22:39.936Z,14.90
2023-05-20T23:25:08.323Z,13.93
2023-05-20T23:27:35.582Z,15.32
2023-05-20T23:30:04.951Z,16.00
2023-05-20T23:32:32.424Z,14.90
2023-05-20T23:34:59.820Z,13.27
2023-05-20T23:37:27.094Z,16.67
2023-05-20T23:39:54.565Z,14.20
2023-05-20T23:42:22.197Z,14.68
2023-05-20T23:44:49.693Z,14.20
2023-05-20T23:47:19.336Z,16.33
2023-05-20T23:49:48.611Z,16.55
2023-05-20T23:52:16.656Z,16.92
2023-05-20T23:54:43.937Z,15.68
2023-05-20T23:57:11.391Z,14.63
2023-05-20T23:59:38.654Z,14.35
